sensor_id;sensor_type;location;lat;lon;timestamp;P1;durP1;ratioP1;P2;durP2;ratioP2
19998;SDS011;10160;50.926;4.374;2022-07-10T00:00:27;9.95;;;2.30;;
19998;SDS011;10160;50.926;4.374;2022-07-10T00:02:54;6.00;;;2.30;;
19998;SDS011;10160;50.926;4.374;2022-07-10T00:05:20;8.02;;;2.85;;
19998;SDS011;10160;50.926;4.374;2022-07-10T00:07:47;6.90;;;2.40;;
19998;SDS011;10160;50.926;4.374;2022-07-10T00:10:14;8.88;;;2.55;;
19998;SDS011;10160;50.926;4.374;2022-07-10T00:12:40;5.93;;;2.47;;
19998;SDS011;10160;50.926;4.374;2022-07-10T00:15:06;12.20;;;3.13;;
19998;SDS011;10160;50.926;4.374;2022-07-10T00:17:32;7.13;;;2.30;;
19998;SDS011;10160;50.926;4.374;2022-07-10T00:19:59;6.97;;;2.45;;
19998;SDS011;10160;50.926;4.374;2022-07-10T00:22:24;6.72;;;2.45;;
19998;SDS011;10160;50.926;4.374;2022-07-10T00:24:50;9.85;;;3.00;;
19998;SDS011;10160;50.926;4.374;2022-07-10T00:27:16;9.55;;;2.30;;
19998;SDS011;10160;50.926;4.374;2022-07-10T00:29:43;9.40;;;2.40;;
19998;SDS011;10160;50.926;4.374;2022-07-10T00:32:09;7.60;;;2.50;;
19998;SDS011;10160;50.926;4.374;2022-07-10T00:34:34;8.00;;;2.33;;
19998;SDS011;10160;50.926;4.374;2022-07-10T00:37:00;9.75;;;2.20;;
19998;SDS011;10160;50.926;4.374;2022-07-10T00:39:27;10.98;;;2.58;;
19998;SDS011;10160;50.926;4.374;2022-07-10T00:41:52;8.40;;;2.67;;
19998;SDS011;10160;50.926;4.374;2022-07-10T00:44:18;10.30;;;2.67;;
19998;SDS011;10160;50.926;4.374;2022-07-10T00:46:44;11.57;;;2.85;;
19998;SDS011;10160;50.926;4.374;2022-07-10T00:49:09;6.10;;;2.40;;
19998;SDS011;10160;50.926;4.374;2022-07-10T00:51:35;7.15;;;2.75;;
19998;SDS011;10160;50.926;4.374;2022-07-10T00:54:02;10.35;;;2.70;;
19998;SDS011;10160;50.926;4.374;2022-07-10T00:56:29;6.60;;;2.35;;
19998;SDS011;10160;50.926;4.374;2022-07-10T00:58:55;6.15;;;2.72;;
19998;SDS011;10160;50.926;4.374;2022-07-10T01:01:21;7.40;;;2.40;;
19998;SDS011;10160;50.926;4.374;2022-07-10T01:03:50;6.40;;;2.35;;
19998;SDS011;10160;50.926;4.374;2022-07-10T01:06:16;8.48;;;2.53;;
19998;SDS011;10160;50.926;4.374;2022-07-10T01:08:43;12.95;;;3.22;;
19998;SDS011;10160;50.926;4.374;2022-07-10T01:11:10;6.43;;;2.70;;
19998;SDS011;10160;50.926;4.374;2022-07-10T01:13:39;8.82;;;3.25;;
19998;SDS011;10160;50.926;4.374;2022-07-10T01:16:05;7.80;;;2.97;;
19998;SDS011;10160;50.926;4.374;2022-07-10T01:18:30;9.63;;;3.00;;
19998;SDS011;10160;50.926;4.374;2022-07-10T01:20:59;10.25;;;2.75;;
19998;SDS011;10160;50.926;4.374;2022-07-10T01:23:25;11.30;;;2.83;;
19998;SDS011;10160;50.926;4.374;2022-07-10T01:25:51;8.20;;;2.85;;
19998;SDS011;10160;50.926;4.374;2022-07-10T01:28:17;9.88;;;3.00;;
19998;SDS011;10160;50.926;4.374;2022-07-10T01:30:45;6.80;;;2.80;;
19998;SDS011;10160;50.926;4.374;2022-07-10T01:33:11;8.68;;;2.60;;
19998;SDS011;10160;50.926;4.374;2022-07-10T01:35:36;12.30;;;2.70;;
19998;SDS011;10160;50.926;4.374;2022-07-10T01:38:03;8.35;;;2.80;;
19998;SDS011;10160;50.926;4.374;2022-07-10T01:40:29;9.63;;;3.00;;
19998;SDS011;10160;50.926;4.374;2022-07-10T01:42:54;6.45;;;2.55;;
19998;SDS011;10160;50.926;4.374;2022-07-10T01:45:20;6.85;;;2.95;;
19998;SDS011;10160;50.926;4.374;2022-07-10T01:47:46;8.82;;;3.58;;
19998;SDS011;10160;50.926;4.374;2022-07-10T01:50:11;10.32;;;2.85;;
19998;SDS011;10160;50.926;4.374;2022-07-10T01:52:37;10.38;;;2.78;;
19998;SDS011;10160;50.926;4.374;2022-07-10T01:55:04;11.60;;;2.83;;
19998;SDS011;10160;50.926;4.374;2022-07-10T01:57:30;8.68;;;3.10;;
19998;SDS011;10160;50.926;4.374;2022-07-10T01:59:56;11.95;;;3.20;;
19998;SDS011;10160;50.926;4.374;2022-07-10T02:02:21;6.97;;;2.57;;
19998;SDS011;10160;50.926;4.374;2022-07-10T02:04:47;6.40;;;2.97;;
19998;SDS011;10160;50.926;4.374;2022-07-10T02:07:14;6.93;;;2.77;;
19998;SDS011;10160;50.926;4.374;2022-07-10T02:09:41;8.83;;;3.10;;
19998;SDS011;10160;50.926;4.374;2022-07-10T02:12:08;7.30;;;3.08;;
19998;SDS011;10160;50.926;4.374;2022-07-10T02:14:35;15.17;;;3.00;;
19998;SDS011;10160;50.926;4.374;2022-07-10T02:17:02;9.70;;;3.10;;
19998;SDS011;10160;50.926;4.374;2022-07-10T02:19:28;9.20;;;3.00;;
19998;SDS011;10160;50.926;4.374;2022-07-10T02:21:54;7.53;;;2.90;;
19998;SDS011;10160;50.926;4.374;2022-07-10T02:24:20;13.73;;;2.83;;
19998;SDS011;10160;50.926;4.374;2022-07-10T02:26:46;10.40;;;2.63;;
19998;SDS011;10160;50.926;4.374;2022-07-10T02:29:12;6.90;;;2.60;;
19998;SDS011;10160;50.926;4.374;2022-07-10T02:31:37;13.77;;;3.57;;
19998;SDS011;10160;50.926;4.374;2022-07-10T02:34:09;8.73;;;3.17;;
19998;SDS011;10160;50.926;4.374;2022-07-10T02:36:36;7.82;;;2.97;;
19998;SDS011;10160;50.926;4.374;2022-07-10T02:39:04;8.40;;;2.60;;
19998;SDS011;10160;50.926;4.374;2022-07-10T02:41:30;7.53;;;2.60;;
19998;SDS011;10160;50.926;4.374;2022-07-10T02:43:56;7.80;;;2.67;;
19998;SDS011;10160;50.926;4.374;2022-07-10T02:46:22;8.10;;;2.63;;
19998;SDS011;10160;50.926;4.374;2022-07-10T02:48:47;8.03;;;2.90;;
19998;SDS011;10160;50.926;4.374;2022-07-10T02:51:13;9.50;;;3.20;;
19998;SDS011;10160;50.926;4.374;2022-07-10T02:53:39;8.80;;;2.60;;
19998;SDS011;10160;50.926;4.374;2022-07-10T02:56:05;7.70;;;2.43;;
19998;SDS011;10160;50.926;4.374;2022-07-10T02:58:31;8.40;;;2.90;;
19998;SDS011;10160;50.926;4.374;2022-07-10T03:00:57;11.20;;;3.30;;
19998;SDS011;10160;50.926;4.374;2022-07-10T03:03:23;6.13;;;2.90;;
19998;SDS011;10160;50.926;4.374;2022-07-10T03:05:49;6.97;;;2.80;;
19998;SDS011;10160;50.926;4.374;2022-07-10T03:08:14;8.23;;;3.03;;
19998;SDS011;10160;50.926;4.374;2022-07-10T03:10:40;6.13;;;2.50;;
19998;SDS011;10160;50.926;4.374;2022-07-10T03:13:06;7.20;;;2.80;;
19998;SDS011;10160;50.926;4.374;2022-07-10T03:15:31;7.90;;;3.30;;
19998;SDS011;10160;50.926;4.374;2022-07-10T03:17:57;7.07;;;3.20;;
19998;SDS011;10160;50.926;4.374;2022-07-10T03:20:23;6.03;;;2.30;;
19998;SDS011;10160;50.926;4.374;2022-07-10T03:22:49;5.40;;;2.57;;
19998;SDS011;10160;50.926;4.374;2022-07-10T03:25:15;8.40;;;3.00;;
19998;SDS011;10160;50.926;4.374;2022-07-10T03:27:41;9.13;;;3.00;;
19998;SDS011;10160;50.926;4.374;2022-07-10T03:30:06;12.17;;;3.83;;
19998;SDS011;10160;50.926;4.374;2022-07-10T03:32:33;7.47;;;3.70;;
19998;SDS011;10160;50.926;4.374;2022-07-10T03:34:58;6.40;;;3.60;;
19998;SDS011;10160;50.926;4.374;2022-07-10T03:37:24;8.67;;;3.63;;
19998;SDS011;10160;50.926;4.374;2022-07-10T03:39:50;11.97;;;3.27;;
19998;SDS011;10160;50.926;4.374;2022-07-10T03:42:16;8.03;;;3.67;;
19998;SDS011;10160;50.926;4.374;2022-07-10T03:44:42;10.07;;;3.57;;
19998;SDS011;10160;50.926;4.374;2022-07-10T03:47:08;6.63;;;3.47;;
19998;SDS011;10160;50.926;4.374;2022-07-10T03:49:33;11.03;;;3.50;;
19998;SDS011;10160;50.926;4.374;2022-07-10T03:52:00;7.77;;;3.93;;
19998;SDS011;10160;50.926;4.374;2022-07-10T03:54:26;6.33;;;3.50;;
19998;SDS011;10160;50.926;4.374;2022-07-10T03:56:52;7.20;;;3.40;;
19998;SDS011;10160;50.926;4.374;2022-07-10T03:59:37;12.17;;;3.47;;
19998;SDS011;10160;50.926;4.374;2022-07-10T04:02:02;11.33;;;4.37;;
19998;SDS011;10160;50.926;4.374;2022-07-10T04:04:28;8.20;;;3.60;;
19998;SDS011;10160;50.926;4.374;2022-07-10T04:06:54;8.37;;;2.97;;
19998;SDS011;10160;50.926;4.374;2022-07-10T04:09:20;10.33;;;3.70;;
19998;SDS011;10160;50.926;4.374;2022-07-10T04:11:46;13.23;;;3.47;;
19998;SDS011;10160;50.926;4.374;2022-07-10T04:14:11;8.03;;;3.57;;
19998;SDS011;10160;50.926;4.374;2022-07-10T04:16:37;10.83;;;3.57;;
19998;SDS011;10160;50.926;4.374;2022-07-10T04:19:02;9.87;;;3.53;;
19998;SDS011;10160;50.926;4.374;2022-07-10T04:21:28;6.93;;;3.10;;
19998;SDS011;10160;50.926;4.374;2022-07-10T04:23:54;11.90;;;3.60;;
19998;SDS011;10160;50.926;4.374;2022-07-10T04:26:19;10.50;;;3.83;;
19998;SDS011;10160;50.926;4.374;2022-07-10T04:28:45;8.50;;;3.67;;
19998;SDS011;10160;50.926;4.374;2022-07-10T04:31:11;8.90;;;3.83;;
19998;SDS011;10160;50.926;4.374;2022-07-10T04:33:36;10.43;;;3.50;;
19998;SDS011;10160;50.926;4.374;2022-07-10T04:36:02;10.87;;;3.90;;
19998;SDS011;10160;50.926;4.374;2022-07-10T04:38:28;9.67;;;3.47;;
19998;SDS011;10160;50.926;4.374;2022-07-10T04:40:53;9.03;;;3.80;;
19998;SDS011;10160;50.926;4.374;2022-07-10T04:43:19;8.00;;;3.17;;
19998;SDS011;10160;50.926;4.374;2022-07-10T04:45:45;10.40;;;3.70;;
19998;SDS011;10160;50.926;4.374;2022-07-10T04:48:10;10.80;;;3.70;;
19998;SDS011;10160;50.926;4.374;2022-07-10T04:50:37;9.50;;;3.57;;
19998;SDS011;10160;50.926;4.374;2022-07-10T04:53:02;14.17;;;4.03;;
19998;SDS011;10160;50.926;4.374;2022-07-10T04:55:28;7.67;;;3.80;;
19998;SDS011;10160;50.926;4.374;2022-07-10T04:57:54;7.00;;;3.43;;
19998;SDS011;10160;50.926;4.374;2022-07-10T05:00:20;7.47;;;2.93;;
19998;SDS011;10160;50.926;4.374;2022-07-10T05:02:46;11.55;;;3.55;;
19998;SDS011;10160;50.926;4.374;2022-07-10T05:05:12;7.20;;;3.00;;
19998;SDS011;10160;50.926;4.374;2022-07-10T05:07:38;10.77;;;3.95;;
19998;SDS011;10160;50.926;4.374;2022-07-10T05:10:03;10.52;;;3.75;;
19998;SDS011;10160;50.926;4.374;2022-07-10T05:12:30;10.80;;;3.27;;
19998;SDS011;10160;50.926;4.374;2022-07-10T05:14:55;10.77;;;3.23;;
19998;SDS011;10160;50.926;4.374;2022-07-10T05:17:22;6.55;;;3.25;;
19998;SDS011;10160;50.926;4.374;2022-07-10T05:19:48;6.50;;;2.70;;
19998;SDS011;10160;50.926;4.374;2022-07-10T05:22:14;11.73;;;3.42;;
19998;SDS011;10160;50.926;4.374;2022-07-10T05:24:39;7.47;;;2.83;;
19998;SDS011;10160;50.926;4.374;2022-07-10T05:27:05;8.48;;;3.10;;
19998;SDS011;10160;50.926;4.374;2022-07-10T05:29:31;6.80;;;2.55;;
19998;SDS011;10160;50.926;4.374;2022-07-10T05:31:56;7.22;;;2.72;;
19998;SDS011;10160;50.926;4.374;2022-07-10T05:34:22;6.32;;;2.30;;
19998;SDS011;10160;50.926;4.374;2022-07-10T05:36:48;6.90;;;2.45;;
19998;SDS011;10160;50.926;4.374;2022-07-10T05:39:13;6.68;;;2.17;;
19998;SDS011;10160;50.926;4.374;2022-07-10T05:41:39;6.80;;;2.40;;
19998;SDS011;10160;50.926;4.374;2022-07-10T05:44:05;8.05;;;2.40;;
19998;SDS011;10160;50.926;4.374;2022-07-10T05:46:30;6.78;;;2.42;;
19998;SDS011;10160;50.926;4.374;2022-07-10T05:48:56;9.20;;;2.55;;
19998;SDS011;10160;50.926;4.374;2022-07-10T05:51:21;7.35;;;2.42;;
19998;SDS011;10160;50.926;4.374;2022-07-10T05:53:47;9.32;;;2.03;;
19998;SDS011;10160;50.926;4.374;2022-07-10T05:56:13;5.35;;;2.28;;
19998;SDS011;10160;50.926;4.374;2022-07-10T05:58:38;5.75;;;2.17;;
19998;SDS011;10160;50.926;4.374;2022-07-10T06:01:04;9.43;;;2.45;;
19998;SDS011;10160;50.926;4.374;2022-07-10T06:03:30;6.60;;;1.88;;
19998;SDS011;10160;50.926;4.374;2022-07-10T06:05:55;6.78;;;2.20;;
19998;SDS011;10160;50.926;4.374;2022-07-10T06:08:21;12.38;;;1.88;;
19998;SDS011;10160;50.926;4.374;2022-07-10T06:10:46;8.18;;;2.42;;
19998;SDS011;10160;50.926;4.374;2022-07-10T06:13:12;10.18;;;2.50;;
19998;SDS011;10160;50.926;4.374;2022-07-10T06:15:38;7.25;;;2.05;;
19998;SDS011;10160;50.926;4.374;2022-07-10T06:18:04;7.55;;;2.03;;
19998;SDS011;10160;50.926;4.374;2022-07-10T06:20:30;7.88;;;2.20;;
19998;SDS011;10160;50.926;4.374;2022-07-10T06:22:56;9.63;;;2.28;;
19998;SDS011;10160;50.926;4.374;2022-07-10T06:25:22;7.47;;;1.92;;
19998;SDS011;10160;50.926;4.374;2022-07-10T06:27:48;6.57;;;1.92;;
19998;SDS011;10160;50.926;4.374;2022-07-10T06:30:13;7.75;;;2.05;;
19998;SDS011;10160;50.926;4.374;2022-07-10T06:32:39;5.95;;;1.70;;
19998;SDS011;10160;50.926;4.374;2022-07-10T06:35:05;9.70;;;1.85;;
19998;SDS011;10160;50.926;4.374;2022-07-10T06:37:32;8.23;;;2.00;;
19998;SDS011;10160;50.926;4.374;2022-07-10T06:39:58;8.10;;;2.40;;
19998;SDS011;10160;50.926;4.374;2022-07-10T06:42:24;8.90;;;1.85;;
19998;SDS011;10160;50.926;4.374;2022-07-10T06:44:50;7.93;;;1.50;;
19998;SDS011;10160;50.926;4.374;2022-07-10T06:47:16;6.18;;;2.05;;
19998;SDS011;10160;50.926;4.374;2022-07-10T06:50:03;7.55;;;1.52;;
19998;SDS011;10160;50.926;4.374;2022-07-10T06:52:31;7.30;;;2.30;;
19998;SDS011;10160;50.926;4.374;2022-07-10T06:55:01;6.03;;;1.80;;
19998;SDS011;10160;50.926;4.374;2022-07-10T06:57:27;7.15;;;2.15;;
19998;SDS011;10160;50.926;4.374;2022-07-10T06:59:54;5.63;;;1.67;;
19998;SDS011;10160;50.926;4.374;2022-07-10T07:02:19;9.02;;;1.80;;
19998;SDS011;10160;50.926;4.374;2022-07-10T07:04:45;6.07;;;2.25;;
19998;SDS011;10160;50.926;4.374;2022-07-10T07:07:11;7.57;;;2.30;;
19998;SDS011;10160;50.926;4.374;2022-07-10T07:09:38;8.40;;;1.77;;
19998;SDS011;10160;50.926;4.374;2022-07-10T07:12:05;8.05;;;1.65;;
19998;SDS011;10160;50.926;4.374;2022-07-10T07:14:31;8.80;;;2.15;;
19998;SDS011;10160;50.926;4.374;2022-07-10T07:16:57;6.65;;;2.00;;
19998;SDS011;10160;50.926;4.374;2022-07-10T07:19:31;7.53;;;1.95;;
19998;SDS011;10160;50.926;4.374;2022-07-10T07:22:19;10.52;;;1.75;;
19998;SDS011;10160;50.926;4.374;2022-07-10T07:25:04;6.93;;;1.80;;
19998;SDS011;10160;50.926;4.374;2022-07-10T07:27:30;5.47;;;1.77;;
19998;SDS011;10160;50.926;4.374;2022-07-10T07:29:57;12.75;;;1.70;;
19998;SDS011;10160;50.926;4.374;2022-07-10T07:32:25;12.02;;;1.85;;
19998;SDS011;10160;50.926;4.374;2022-07-10T07:34:51;6.07;;;1.83;;
19998;SDS011;10160;50.926;4.374;2022-07-10T07:37:17;4.68;;;1.60;;
19998;SDS011;10160;50.926;4.374;2022-07-10T07:39:42;6.38;;;1.90;;
19998;SDS011;10160;50.926;4.374;2022-07-10T07:42:08;9.18;;;1.60;;
19998;SDS011;10160;50.926;4.374;2022-07-10T07:44:34;5.88;;;1.80;;
19998;SDS011;10160;50.926;4.374;2022-07-10T07:46:59;8.50;;;1.88;;
19998;SDS011;10160;50.926;4.374;2022-07-10T07:49:25;8.15;;;1.60;;
19998;SDS011;10160;50.926;4.374;2022-07-10T07:51:50;7.50;;;1.67;;
19998;SDS011;10160;50.926;4.374;2022-07-10T07:54:16;7.15;;;1.55;;
19998;SDS011;10160;50.926;4.374;2022-07-10T07:56:41;7.97;;;1.83;;
19998;SDS011;10160;50.926;4.374;2022-07-10T07:59:07;7.15;;;1.73;;
19998;SDS011;10160;50.926;4.374;2022-07-10T08:01:33;13.40;;;1.95;;
19998;SDS011;10160;50.926;4.374;2022-07-10T08:03:58;5.68;;;1.42;;
19998;SDS011;10160;50.926;4.374;2022-07-10T08:06:24;10.00;;;1.33;;
19998;SDS011;10160;50.926;4.374;2022-07-10T08:08:49;7.13;;;1.70;;
19998;SDS011;10160;50.926;4.374;2022-07-10T08:11:15;6.85;;;1.40;;
19998;SDS011;10160;50.926;4.374;2022-07-10T08:13:42;4.93;;;1.75;;
19998;SDS011;10160;50.926;4.374;2022-07-10T08:16:08;8.32;;;1.90;;
19998;SDS011;10160;50.926;4.374;2022-07-10T08:18:33;12.20;;;2.45;;
19998;SDS011;10160;50.926;4.374;2022-07-10T08:20:59;7.60;;;1.70;;
19998;SDS011;10160;50.926;4.374;2022-07-10T08:23:25;10.27;;;1.80;;
19998;SDS011;10160;50.926;4.374;2022-07-10T08:25:51;8.77;;;1.90;;
19998;SDS011;10160;50.926;4.374;2022-07-10T08:28:16;8.48;;;1.60;;
19998;SDS011;10160;50.926;4.374;2022-07-10T08:30:42;8.65;;;2.00;;
19998;SDS011;10160;50.926;4.374;2022-07-10T08:33:08;7.35;;;1.85;;
19998;SDS011;10160;50.926;4.374;2022-07-10T08:35:34;9.63;;;1.90;;
19998;SDS011;10160;50.926;4.374;2022-07-10T08:38:00;7.45;;;2.10;;
19998;SDS011;10160;50.926;4.374;2022-07-10T08:40:26;10.07;;;2.10;;
19998;SDS011;10160;50.926;4.374;2022-07-10T08:43:00;9.57;;;2.10;;
19998;SDS011;10160;50.926;4.374;2022-07-10T08:45:26;7.40;;;2.50;;
19998;SDS011;10160;50.926;4.374;2022-07-10T08:47:55;8.00;;;1.58;;
19998;SDS011;10160;50.926;4.374;2022-07-10T08:50:26;5.80;;;1.73;;
19998;SDS011;10160;50.926;4.374;2022-07-10T08:53:12;10.88;;;2.30;;
19998;SDS011;10160;50.926;4.374;2022-07-10T08:55:41;8.80;;;1.73;;
19998;SDS011;10160;50.926;4.374;2022-07-10T08:58:08;12.60;;;2.40;;
19998;SDS011;10160;50.926;4.374;2022-07-10T09:00:37;10.20;;;1.83;;
19998;SDS011;10160;50.926;4.374;2022-07-10T09:03:05;7.68;;;2.15;;
19998;SDS011;10160;50.926;4.374;2022-07-10T09:05:32;4.75;;;1.92;;
19998;SDS011;10160;50.926;4.374;2022-07-10T09:07:58;7.68;;;1.70;;
19998;SDS011;10160;50.926;4.374;2022-07-10T09:10:24;6.72;;;2.25;;
19998;SDS011;10160;50.926;4.374;2022-07-10T09:12:52;8.32;;;2.55;;
19998;SDS011;10160;50.926;4.374;2022-07-10T09:15:20;5.88;;;2.45;;
19998;SDS011;10160;50.926;4.374;2022-07-10T09:17:54;7.43;;;2.33;;
19998;SDS011;10160;50.926;4.374;2022-07-10T09:20:29;8.00;;;2.03;;
19998;SDS011;10160;50.926;4.374;2022-07-10T09:22:58;5.65;;;2.40;;
19998;SDS011;10160;50.926;4.374;2022-07-10T09:25:31;10.40;;;2.20;;
19998;SDS011;10160;50.926;4.374;2022-07-10T09:27:59;6.20;;;2.10;;
19998;SDS011;10160;50.926;4.374;2022-07-10T09:33:15;9.00;;;2.20;;
19998;SDS011;10160;50.926;4.374;2022-07-10T09:41:11;7.55;;;2.10;;
19998;SDS011;10160;50.926;4.374;2022-07-10T09:46:24;5.78;;;2.38;;
19998;SDS011;10160;50.926;4.374;2022-07-10T09:49:08;7.22;;;2.70;;
19998;SDS011;10160;50.926;4.374;2022-07-10T09:51:38;9.88;;;2.80;;
19998;SDS011;10160;50.926;4.374;2022-07-10T09:54:06;8.63;;;2.58;;
19998;SDS011;10160;50.926;4.374;2022-07-10T09:59:13;7.85;;;2.72;;
19998;SDS011;10160;50.926;4.374;2022-07-10T10:01:44;5.63;;;2.22;;
19998;SDS011;10160;50.926;4.374;2022-07-10T10:04:11;8.93;;;2.53;;
19998;SDS011;10160;50.926;4.374;2022-07-10T10:06:38;7.28;;;2.67;;
19998;SDS011;10160;50.926;4.374;2022-07-10T10:09:07;9.05;;;2.65;;
19998;SDS011;10160;50.926;4.374;2022-07-10T10:11:37;7.85;;;2.08;;
19998;SDS011;10160;50.926;4.374;2022-07-10T10:14:06;10.52;;;2.20;;
19998;SDS011;10160;50.926;4.374;2022-07-10T10:16:33;11.18;;;2.25;;
19998;SDS011;10160;50.926;4.374;2022-07-10T10:19:01;8.85;;;2.60;;
19998;SDS011;10160;50.926;4.374;2022-07-10T10:21:45;6.07;;;2.20;;
19998;SDS011;10160;50.926;4.374;2022-07-10T10:24:11;5.20;;;1.90;;
19998;SDS011;10160;50.926;4.374;2022-07-10T10:26:39;8.68;;;2.40;;
19998;SDS011;10160;50.926;4.374;2022-07-10T10:29:06;5.13;;;2.10;;
19998;SDS011;10160;50.926;4.374;2022-07-10T10:31:33;7.78;;;2.10;;
19998;SDS011;10160;50.926;4.374;2022-07-10T10:33:59;12.05;;;2.38;;
19998;SDS011;10160;50.926;4.374;2022-07-10T10:39:19;4.55;;;2.28;;
19998;SDS011;10160;50.926;4.374;2022-07-10T10:41:47;8.85;;;2.38;;
19998;SDS011;10160;50.926;4.374;2022-07-10T10:44:20;6.20;;;2.20;;
19998;SDS011;10160;50.926;4.374;2022-07-10T10:49:15;5.15;;;2.10;;
19998;SDS011;10160;50.926;4.374;2022-07-10T10:54:30;8.60;;;1.90;;
19998;SDS011;10160;50.926;4.374;2022-07-10T10:57:15;6.30;;;1.77;;
19998;SDS011;10160;50.926;4.374;2022-07-10T10:59:53;7.10;;;1.80;;
19998;SDS011;10160;50.926;4.374;2022-07-10T11:02:28;6.65;;;1.80;;
19998;SDS011;10160;50.926;4.374;2022-07-10T11:07:50;5.03;;;1.50;;
19998;SDS011;10160;50.926;4.374;2022-07-10T11:10:26;6.65;;;1.80;;
19998;SDS011;10160;50.926;4.374;2022-07-10T11:13:01;5.68;;;1.90;;
19998;SDS011;10160;50.926;4.374;2022-07-10T11:15:32;7.43;;;2.17;;
19998;SDS011;10160;50.926;4.374;2022-07-10T11:18:03;6.68;;;1.80;;
19998;SDS011;10160;50.926;4.374;2022-07-10T11:20:33;6.43;;;2.00;;
19998;SDS011;10160;50.926;4.374;2022-07-10T11:28:55;5.28;;;1.83;;
19998;SDS011;10160;50.926;4.374;2022-07-10T11:31:26;7.72;;;1.92;;
19998;SDS011;10160;50.926;4.374;2022-07-10T11:33:53;5.25;;;1.20;;
19998;SDS011;10160;50.926;4.374;2022-07-10T11:36:20;4.30;;;1.58;;
19998;SDS011;10160;50.926;4.374;2022-07-10T11:38:55;6.63;;;1.90;;
19998;SDS011;10160;50.926;4.374;2022-07-10T11:41:23;6.05;;;1.65;;
19998;SDS011;10160;50.926;4.374;2022-07-10T11:43:53;6.15;;;1.77;;
19998;SDS011;10160;50.926;4.374;2022-07-10T11:46:19;4.63;;;1.52;;
19998;SDS011;10160;50.926;4.374;2022-07-10T11:48:46;6.65;;;1.65;;
19998;SDS011;10160;50.926;4.374;2022-07-10T11:51:20;6.13;;;1.40;;
19998;SDS011;10160;50.926;4.374;2022-07-10T11:53:53;5.07;;;1.50;;
19998;SDS011;10160;50.926;4.374;2022-07-10T11:56:22;4.32;;;1.38;;
19998;SDS011;10160;50.926;4.374;2022-07-10T11:58:58;8.20;;;1.67;;
19998;SDS011;10160;50.926;4.374;2022-07-10T12:01:25;6.80;;;1.27;;
19998;SDS011;10160;50.926;4.374;2022-07-10T12:03:54;3.88;;;1.38;;
19998;SDS011;10160;50.926;4.374;2022-07-10T12:06:21;8.07;;;1.30;;
19998;SDS011;10160;50.926;4.374;2022-07-10T12:08:48;3.45;;;1.20;;
19998;SDS011;10160;50.926;4.374;2022-07-10T12:11:17;5.95;;;1.52;;
19998;SDS011;10160;50.926;4.374;2022-07-10T12:13:44;5.97;;;1.73;;
19998;SDS011;10160;50.926;4.374;2022-07-10T12:16:11;4.68;;;1.10;;
19998;SDS011;10160;50.926;4.374;2022-07-10T12:18:37;6.07;;;1.80;;
19998;SDS011;10160;50.926;4.374;2022-07-10T12:21:05;6.75;;;1.50;;
19998;SDS011;10160;50.926;4.374;2022-07-10T12:23:32;5.25;;;1.48;;
19998;SDS011;10160;50.926;4.374;2022-07-10T12:26:00;3.30;;;1.30;;
19998;SDS011;10160;50.926;4.374;2022-07-10T12:28:28;7.70;;;1.40;;
19998;SDS011;10160;50.926;4.374;2022-07-10T12:30:53;5.40;;;1.40;;
19998;SDS011;10160;50.926;4.374;2022-07-10T12:33:19;5.53;;;1.17;;
19998;SDS011;10160;50.926;4.374;2022-07-10T12:38:20;4.53;;;1.10;;
19998;SDS011;10160;50.926;4.374;2022-07-10T12:40:48;3.35;;;0.95;;
19998;SDS011;10160;50.926;4.374;2022-07-10T12:43:23;5.13;;;0.88;;
19998;SDS011;10160;50.926;4.374;2022-07-10T12:57:04;3.70;;;1.00;;
19998;SDS011;10160;50.926;4.374;2022-07-10T12:59:34;3.80;;;1.20;;
19998;SDS011;10160;50.926;4.374;2022-07-10T13:02:17;5.20;;;1.20;;
19998;SDS011;10160;50.926;4.374;2022-07-10T13:04:53;6.07;;;1.27;;
19998;SDS011;10160;50.926;4.374;2022-07-10T13:07:19;5.28;;;0.90;;
19998;SDS011;10160;50.926;4.374;2022-07-10T13:09:46;4.60;;;0.95;;
19998;SDS011;10160;50.926;4.374;2022-07-10T13:12:15;4.88;;;0.88;;
19998;SDS011;10160;50.926;4.374;2022-07-10T13:14:41;5.97;;;0.80;;
19998;SDS011;10160;50.926;4.374;2022-07-10T13:17:06;6.47;;;1.10;;
19998;SDS011;10160;50.926;4.374;2022-07-10T13:19:32;5.32;;;1.00;;
19998;SDS011;10160;50.926;4.374;2022-07-10T13:21:57;3.78;;;1.13;;
19998;SDS011;10160;50.926;4.374;2022-07-10T13:24:23;5.40;;;1.05;;
19998;SDS011;10160;50.926;4.374;2022-07-10T13:26:53;3.38;;;1.05;;
19998;SDS011;10160;50.926;4.374;2022-07-10T13:29:21;3.08;;;0.90;;
19998;SDS011;10160;50.926;4.374;2022-07-10T13:31:46;5.95;;;0.95;;
19998;SDS011;10160;50.926;4.374;2022-07-10T13:34:12;5.78;;;1.33;;
19998;SDS011;10160;50.926;4.374;2022-07-10T13:36:37;6.88;;;1.10;;
19998;SDS011;10160;50.926;4.374;2022-07-10T13:39:03;3.40;;;0.93;;
19998;SDS011;10160;50.926;4.374;2022-07-10T13:41:29;4.05;;;1.05;;
19998;SDS011;10160;50.926;4.374;2022-07-10T13:43:55;6.88;;;0.95;;
19998;SDS011;10160;50.926;4.374;2022-07-10T13:46:20;4.40;;;1.20;;
19998;SDS011;10160;50.926;4.374;2022-07-10T13:48:46;5.15;;;0.95;;
19998;SDS011;10160;50.926;4.374;2022-07-10T13:51:11;5.35;;;0.98;;
19998;SDS011;10160;50.926;4.374;2022-07-10T13:53:37;5.88;;;1.00;;
19998;SDS011;10160;50.926;4.374;2022-07-10T13:56:07;4.22;;;1.00;;
19998;SDS011;10160;50.926;4.374;2022-07-10T13:58:34;5.63;;;1.05;;
19998;SDS011;10160;50.926;4.374;2022-07-10T14:01:00;4.35;;;0.80;;
19998;SDS011;10160;50.926;4.374;2022-07-10T14:03:26;7.45;;;1.13;;
19998;SDS011;10160;50.926;4.374;2022-07-10T14:05:52;7.47;;;1.08;;
19998;SDS011;10160;50.926;4.374;2022-07-10T14:08:18;4.40;;;0.95;;
19998;SDS011;10160;50.926;4.374;2022-07-10T14:10:44;4.95;;;0.98;;
19998;SDS011;10160;50.926;4.374;2022-07-10T14:13:10;4.90;;;1.20;;
19998;SDS011;10160;50.926;4.374;2022-07-10T14:15:36;4.93;;;1.00;;
19998;SDS011;10160;50.926;4.374;2022-07-10T14:18:01;6.57;;;0.90;;
19998;SDS011;10160;50.926;4.374;2022-07-10T14:20:28;5.70;;;1.10;;
19998;SDS011;10160;50.926;4.374;2022-07-10T14:23:15;4.68;;;0.90;;
19998;SDS011;10160;50.926;4.374;2022-07-10T14:25:41;5.68;;;1.20;;
19998;SDS011;10160;50.926;4.374;2022-07-10T14:28:07;4.88;;;0.98;;
19998;SDS011;10160;50.926;4.374;2022-07-10T14:30:32;5.78;;;1.05;;
19998;SDS011;10160;50.926;4.374;2022-07-10T14:32:58;3.70;;;1.00;;
19998;SDS011;10160;50.926;4.374;2022-07-10T14:35:23;3.38;;;0.90;;
19998;SDS011;10160;50.926;4.374;2022-07-10T14:37:49;3.35;;;0.85;;
19998;SDS011;10160;50.926;4.374;2022-07-10T14:40:15;6.15;;;1.08;;
19998;SDS011;10160;50.926;4.374;2022-07-10T14:42:40;4.78;;;0.80;;
19998;SDS011;10160;50.926;4.374;2022-07-10T14:45:06;5.38;;;1.00;;
19998;SDS011;10160;50.926;4.374;2022-07-10T14:47:32;6.78;;;1.00;;
19998;SDS011;10160;50.926;4.374;2022-07-10T14:49:59;3.25;;;0.90;;
19998;SDS011;10160;50.926;4.374;2022-07-10T14:52:25;3.20;;;0.85;;
19998;SDS011;10160;50.926;4.374;2022-07-10T14:54:52;5.30;;;1.10;;
19998;SDS011;10160;50.926;4.374;2022-07-10T14:57:18;5.97;;;0.90;;
19998;SDS011;10160;50.926;4.374;2022-07-10T14:59:44;3.75;;;1.08;;
19998;SDS011;10160;50.926;4.374;2022-07-10T15:02:10;5.40;;;1.48;;
19998;SDS011;10160;50.926;4.374;2022-07-10T15:04:35;5.28;;;1.05;;
19998;SDS011;10160;50.926;4.374;2022-07-10T15:07:01;7.30;;;0.90;;
19998;SDS011;10160;50.926;4.374;2022-07-10T15:09:27;4.70;;;0.95;;
19998;SDS011;10160;50.926;4.374;2022-07-10T15:11:52;3.28;;;0.82;;
19998;SDS011;10160;50.926;4.374;2022-07-10T15:14:19;5.35;;;1.08;;
19998;SDS011;10160;50.926;4.374;2022-07-10T15:16:45;4.07;;;0.88;;
19998;SDS011;10160;50.926;4.374;2022-07-10T15:19:10;4.47;;;1.17;;
19998;SDS011;10160;50.926;4.374;2022-07-10T15:21:36;3.25;;;1.10;;
19998;SDS011;10160;50.926;4.374;2022-07-10T15:24:03;5.45;;;1.20;;
19998;SDS011;10160;50.926;4.374;2022-07-10T15:26:29;4.07;;;1.20;;
19998;SDS011;10160;50.926;4.374;2022-07-10T15:28:55;4.47;;;1.27;;